Time;durP1;ratioP1;P1;durP2;ratioP2;P2;SDS_P1;SDS_P2;PMS_P1;PMS_P2;Temp;Humidity;BMP_temperature;BMP_pressure;BME280_temperature;BME280_humidity;BME280_pressure;Samples;Min_cycle;Max_cycle;Signal;HPM_P1;HPM_P2
2022/06/29 00:00:20;;;;;;;11.10;5.55;;;;;;;;;;5030725;28;20029;-59
2022/06/29 00:02:46;;;;;;;9.73;5.88;;;;;;;;;;5030856;28;20060;-66
2022/06/29 00:05:13;;;;;;;9.80;5.32;;;;;;;;;;5030681;28;20034;-59
2022/06/29 00:07:39;;;;;;;8.00;4.82;;;;;;;;;;5030714;28;20509;-59
2022/06/29 00:10:06;;;;;;;9.68;5.05;;;;;;;;;;5030663;28;20029;-59
2022/06/29 00:12:32;;;;;;;9.98;5.32;;;;;;;;;;5034293;28;20558;-65
2022/06/29 00:15:02;;;;;;;10.60;5.85;;;;;;;;;;5034549;28;20595;-64
2022/06/29 00:17:28;;;;;;;9.82;5.18;;;;;;;;;;5033966;28;20029;-60
2022/06/29 00:19:54;;;;;;;12.90;5.45;;;;;;;;;;5033819;28;20053;-64
2022/06/29 00:22:20;;;;;;;10.82;5.15;;;;;;;;;;5033832;28;20030;-64
2022/06/29 00:24:46;;;;;;;13.07;6.75;;;;;;;;;;5033848;28;20116;-65
2022/06/29 00:27:12;;;;;;;11.05;5.13;;;;;;;;;;5033393;28;20075;-60
2022/06/29 00:29:38;;;;;;;10.30;5.40;;;;;;;;;;5033726;28;20033;-59
2022/06/29 00:32:05;;;;;;;8.57;5.30;;;;;;;;;;5033872;28;20021;-59
2022/06/29 00:34:31;;;;;;;9.82;5.40;;;;;;;;;;5033892;28;20104;-62
2022/06/29 00:36:57;;;;;;;10.43;5.65;;;;;;;;;;5033920;28;20023;-61
2022/06/29 00:39:23;;;;;;;10.60;6.10;;;;;;;;;;5033635;28;20032;-59
2022/06/29 00:41:49;;;;;;;12.60;7.22;;;;;;;;;;5033591;28;20033;-64
2022/06/29 00:44:17;;;;;;;8.65;4.70;;;;;;;;;;5033464;28;20034;-62
2022/06/29 00:46:51;;;;;;;11.23;5.15;;;;;;;;;;5033836;28;20385;-59
2022/06/29 00:49:18;;;;;;;6.88;4.50;;;;;;;;;;5033516;28;20105;-59
2022/06/29 00:51:45;;;;;;;9.80;4.75;;;;;;;;;;5033373;28;20029;-59
2022/06/29 00:54:13;;;;;;;8.88;4.57;;;;;;;;;;5033704;28;20389;-65
2022/06/29 00:56:41;;;;;;;11.48;4.93;;;;;;;;;;5033313;28;20496;-59
2022/06/29 00:59:09;;;;;;;6.68;4.93;;;;;;;;;;5033301;28;20064;-61
2022/06/29 01:01:36;;;;;;;7.65;4.50;;;;;;;;;;5033448;28;20133;-61
2022/06/29 01:04:02;;;;;;;8.70;4.65;;;;;;;;;;5033237;28;20041;-59
2022/06/29 01:06:28;;;;;;;8.02;4.80;;;;;;;;;;5033295;28;20026;-65
2022/06/29 01:08:55;;;;;;;10.65;4.60;;;;;;;;;;5033454;28;20094;-60
2022/06/29 01:11:21;;;;;;;6.20;4.30;;;;;;;;;;5033203;28;20059;-60
2022/06/29 01:13:48;;;;;;;8.32;4.57;;;;;;;;;;5033255;28;20025;-59
2022/06/29 01:16:15;;;;;;;7.88;4.65;;;;;;;;;;5033449;28;20503;-63
2022/06/29 01:18:41;;;;;;;6.55;4.40;;;;;;;;;;5032831;28;20104;-59
2022/06/29 01:21:10;;;;;;;6.43;4.70;;;;;;;;;;5033048;28;20037;-64
2022/06/29 01:23:37;;;;;;;8.75;5.97;;;;;;;;;;5033176;28;20037;-65
2022/06/29 01:26:04;;;;;;;14.55;8.95;;;;;;;;;;5032730;28;20087;-64
2022/06/29 01:28:30;;;;;;;7.57;5.07;;;;;;;;;;5033054;28;20029;-64
2022/06/29 01:30:56;;;;;;;7.53;4.68;;;;;;;;;;5032863;28;20025;-60
2022/06/29 01:33:22;;;;;;;7.95;4.35;;;;;;;;;;5032827;28;20537;-61
2022/06/29 01:35:48;;;;;;;6.38;4.80;;;;;;;;;;5032967;28;20481;-64
2022/06/29 01:38:14;;;;;;;10.15;5.80;;;;;;;;;;5032832;28;20033;-60
2022/06/29 01:40:40;;;;;;;8.52;4.78;;;;;;;;;;5032771;28;20041;-64
2022/06/29 05:21:19;;;;;;;6.95;3.83;;;;;;;;;;4963549;23;20061;-67
2022/06/29 05:23:45;;;;;;;5.85;3.53;;;;;;;;;;4974433;28;20038;-66
2022/06/29 05:26:11;;;;;;;6.97;3.65;;;;;;;;;;4974406;28;20039;-68
2022/06/29 05:28:37;;;;;;;4.88;3.50;;;;;;;;;;4974367;28;20034;-61
2022/06/29 05:31:03;;;;;;;18.00;4.75;;;;;;;;;;4974621;28;20038;-72
2022/06/29 05:33:36;;;;;;;7.90;4.03;;;;;;;;;;4974284;28;20034;-63
2022/06/29 05:36:03;;;;;;;15.80;3.58;;;;;;;;;;4974374;28;20493;-71
2022/06/29 05:38:30;;;;;;;12.88;3.45;;;;;;;;;;4974345;28;20128;-73
2022/06/29 05:40:56;;;;;;;6.72;3.30;;;;;;;;;;4974182;28;20023;-72
2022/06/29 05:43:22;;;;;;;8.10;3.33;;;;;;;;;;4973823;28;20027;-64
2022/06/29 05:45:48;;;;;;;10.90;4.00;;;;;;;;;;4971597;28;20418;-70
2022/06/29 05:48:14;;;;;;;13.07;3.30;;;;;;;;;;4973646;28;20031;-62
2022/06/29 05:50:40;;;;;;;15.40;3.50;;;;;;;;;;4974019;28;20038;-74
2022/06/29 05:53:06;;;;;;;8.57;3.10;;;;;;;;;;4973909;28;20015;-66
2022/06/29 05:55:32;;;;;;;6.15;3.30;;;;;;;;;;4973696;28;20022;-65
2022/06/29 05:57:59;;;;;;;4.72;3.10;;;;;;;;;;4973835;28;20102;-76
2022/06/29 06:00:25;;;;;;;7.85;3.35;;;;;;;;;;4974014;28;20423;-69
2022/06/29 06:02:52;;;;;;;4.95;3.25;;;;;;;;;;4970452;28;20210;-63
2022/06/29 06:05:18;;;;;;;6.30;3.67;;;;;;;;;;4973038;28;20398;-69
2022/06/29 06:07:44;;;;;;;8.10;3.78;;;;;;;;;;4971874;28;20019;-75
2022/06/29 06:10:10;;;;;;;6.82;3.75;;;;;;;;;;4973039;28;20030;-72
2022/06/29 06:12:36;;;;;;;8.80;3.53;;;;;;;;;;4973537;28;20501;-63
2022/06/29 06:15:02;;;;;;;5.43;3.40;;;;;;;;;;4973651;28;20031;-62
2022/06/29 06:17:28;;;;;;;8.50;4.07;;;;;;;;;;4973402;28;20054;-67
2022/06/29 06:19:56;;;;;;;7.30;4.07;;;;;;;;;;4979412;28;20054;-75
2022/06/29 06:22:22;;;;;;;8.57;4.13;;;;;;;;;;4992705;28;20046;-74
2022/06/29 06:24:48;;;;;;;9.57;4.38;;;;;;;;;;4992931;28;20038;-63
2022/06/29 06:27:14;;;;;;;8.77;4.82;;;;;;;;;;4992812;28;20073;-65
2022/06/29 06:29:40;;;;;;;7.43;3.58;;;;;;;;;;4993159;28;20041;-68
2022/06/29 06:32:07;;;;;;;8.38;4.15;;;;;;;;;;4992939;28;20398;-68
2022/06/29 06:34:33;;;;;;;9.50;3.65;;;;;;;;;;4992531;28;20054;-68
2022/06/29 06:36:59;;;;;;;17.67;4.22;;;;;;;;;;4992620;28;20034;-62
2022/06/29 06:39:28;;;;;;;6.65;2.78;;;;;;;;;;4992671;28;20454;-62
2022/06/29 06:41:54;;;;;;;7.35;3.40;;;;;;;;;;4992348;28;20034;-62
2022/06/29 06:44:20;;;;;;;6.35;3.22;;;;;;;;;;4992321;28;20153;-71
2022/06/29 06:46:48;;;;;;;7.15;3.40;;;;;;;;;;4992587;28;20113;-61
2022/06/29 06:49:15;;;;;;;5.63;3.42;;;;;;;;;;4992248;28;20113;-62
2022/06/29 06:51:41;;;;;;;3.58;3.00;;;;;;;;;;4992343;28;20057;-66
2022/06/29 06:54:07;;;;;;;5.57;3.20;;;;;;;;;;4992214;28;20045;-72
2022/06/29 06:56:33;;;;;;;6.78;3.38;;;;;;;;;;4992244;28;20054;-70
2022/06/29 06:58:59;;;;;;;5.07;3.60;;;;;;;;;;4992121;28;20023;-72
2022/06/29 07:01:25;;;;;;;6.80;3.28;;;;;;;;;;4992452;28;20133;-71
2022/06/29 07:03:52;;;;;;;5.30;3.33;;;;;;;;;;4992057;28;20390;-72
2022/06/29 07:06:18;;;;;;;7.22;2.95;;;;;;;;;;4992103;28;20113;-72
2022/06/29 07:08:44;;;;;;;7.38;2.50;;;;;;;;;;4991621;28;20065;-65
2022/06/29 07:11:10;;;;;;;6.88;3.15;;;;;;;;;;4991538;28;20548;-72
2022/06/29 07:13:36;;;;;;;3.83;2.80;;;;;;;;;;4991808;28;20034;-72
2022/06/29 07:16:04;;;;;;;6.65;2.60;;;;;;;;;;4992150;28;20057;-60
2022/06/29 07:18:30;;;;;;;6.82;2.50;;;;;;;;;;4991518;28;20038;-62
2022/06/29 07:20:56;;;;;;;3.25;2.28;;;;;;;;;;4991245;28;20050;-66
2022/06/29 07:23:22;;;;;;;5.25;3.17;;;;;;;;;;4991615;28;20054;-60
2022/06/29 07:25:48;;;;;;;7.38;3.20;;;;;;;;;;4990883;28;20061;-61
2022/06/29 07:28:14;;;;;;;7.35;2.80;;;;;;;;;;4992021;28;20102;-72
2022/06/29 07:30:41;;;;;;;5.70;3.28;;;;;;;;;;4991943;28;20045;-68
2022/06/29 07:33:09;;;;;;;4.72;2.80;;;;;;;;;;4992034;28;20026;-61
2022/06/29 07:35:35;;;;;;;4.57;2.70;;;;;;;;;;4991806;28;20054;-64
2022/06/29 07:38:01;;;;;;;5.28;3.15;;;;;;;;;;4992020;28;20030;-61
2022/06/29 07:40:27;;;;;;;5.95;3.13;;;;;;;;;;4991784;28;20435;-73
2022/06/29 07:42:53;;;;;;;4.10;2.92;;;;;;;;;;4991517;28;20023;-73
2022/06/29 07:45:19;;;;;;;4.90;3.33;;;;;;;;;;4991719;28;20030;-63
2022/06/29 07:47:45;;;;;;;3.88;2.88;;;;;;;;;;4991859;28;20076;-63
2022/06/29 07:50:12;;;;;;;5.10;3.03;;;;;;;;;;4991594;28;20079;-63
2022/06/29 07:52:39;;;;;;;8.43;3.17;;;;;;;;;;4991578;28;20471;-71
2022/06/29 07:55:05;;;;;;;5.65;3.45;;;;;;;;;;4991335;28;20062;-62
2022/06/29 07:57:31;;;;;;;5.03;3.22;;;;;;;;;;4991144;28;20096;-74
2022/06/29 07:59:57;;;;;;;4.50;3.20;;;;;;;;;;4991430;28;20101;-62
2022/06/29 08:02:23;;;;;;;4.05;3.25;;;;;;;;;;4991607;28;20026;-72
2022/06/29 08:04:49;;;;;;;7.03;3.80;;;;;;;;;;4991579;28;20058;-73
2022/06/29 08:07:15;;;;;;;3.97;3.30;;;;;;;;;;4991540;28;20027;-72
2022/06/29 08:09:41;;;;;;;6.57;3.17;;;;;;;;;;4991634;28;20065;-75
2022/06/29 08:12:08;;;;;;;4.25;3.10;;;;;;;;;;4991602;28;20022;-63
2022/06/29 08:14:34;;;;;;;5.85;3.42;;;;;;;;;;4991818;28;20037;-65
2022/06/29 08:17:00;;;;;;;3.80;3.30;;;;;;;;;;4991522;28;20101;-61
2022/06/29 08:19:26;;;;;;;3.97;3.38;;;;;;;;;;4990651;28;20500;-60
2022/06/29 08:21:52;;;;;;;5.40;3.80;;;;;;;;;;4990841;28;20039;-61
2022/06/29 08:24:18;;;;;;;4.07;3.42;;;;;;;;;;4990545;28;20058;-60
2022/06/29 08:27:23;;;;;;;4.90;3.45;;;;;;;;;;5510349;22;20477;-62
2022/06/29 08:29:50;;;;;;;9.25;3.78;;;;;;;;;;5109195;28;20032;-64
2022/06/29 08:32:16;;;;;;;4.60;3.20;;;;;;;;;;5109023;28;20097;-64
2022/06/29 08:34:42;;;;;;;7.95;3.50;;;;;;;;;;5108906;28;20028;-67
2022/06/29 08:37:08;;;;;;;5.43;3.83;;;;;;;;;;5109045;28;20024;-64
2022/06/29 08:39:35;;;;;;;3.78;3.10;;;;;;;;;;5108958;28;20020;-75
2022/06/29 08:42:04;;;;;;;4.05;3.40;;;;;;;;;;5108394;28;20103;-67
2022/06/29 08:44:32;;;;;;;6.93;3.40;;;;;;;;;;5108660;28;20097;-62
2022/06/29 08:47:00;;;;;;;5.90;3.50;;;;;;;;;;5108448;28;20040;-57
2022/06/29 08:49:27;;;;;;;3.97;3.35;;;;;;;;;;5098342;28;20024;-65
2022/06/29 08:51:56;;;;;;;7.05;3.80;;;;;;;;;;5087926;28;20052;-58
2022/06/29 08:54:25;;;;;;;5.68;3.28;;;;;;;;;;5087756;28;20028;-67
2022/06/29 08:56:51;;;;;;;6.63;3.65;;;;;;;;;;5087853;28;20024;-69
2022/06/29 08:59:18;;;;;;;5.25;3.50;;;;;;;;;;5088076;28;20031;-62
2022/06/29 09:01:44;;;;;;;6.60;3.72;;;;;;;;;;5088234;28;20372;-66
2022/06/29 09:04:10;;;;;;;7.53;3.63;;;;;;;;;;5087665;28;20394;-62
2022/06/29 09:06:36;;;;;;;4.72;3.67;;;;;;;;;;5087868;28;20047;-66
2022/06/29 09:09:02;;;;;;;9.90;3.80;;;;;;;;;;5087680;28;20028;-62
2022/06/29 09:11:29;;;;;;;9.77;3.75;;;;;;;;;;5087657;28;20033;-62
2022/06/29 09:14:11;;;;;;;4.97;3.30;;;;;;;;;;5087099;28;20028;-73
2022/06/29 09:16:49;;;;;;;4.70;2.78;;;;;;;;;;5087149;28;20426;-58
2022/06/29 09:19:19;;;;;;;4.28;2.80;;;;;;;;;;5087367;28;20071;-60
2022/06/29 09:21:50;;;;;;;5.32;3.20;;;;;;;;;;5087903;28;20158;-68
2022/06/29 09:24:20;;;;;;;5.82;2.95;;;;;;;;;;5087659;28;20032;-60
2022/06/29 09:26:50;;;;;;;6.18;3.10;;;;;;;;;;5087466;28;20040;-59
2022/06/29 09:29:20;;;;;;;6.95;3.53;;;;;;;;;;5068222;28;20090;-58
2022/06/29 09:32:04;;;;;;;5.20;2.90;;;;;;;;;;5067165;28;20122;-60
2022/06/29 09:34:33;;;;;;;3.97;2.85;;;;;;;;;;5067076;28;20032;-64
2022/06/29 09:37:00;;;;;;;6.00;3.10;;;;;;;;;;5063317;28;20028;-61
2022/06/29 09:39:33;;;;;;;4.35;3.10;;;;;;;;;;5054032;28;20104;-70
2022/06/29 09:42:00;;;;;;;5.00;3.22;;;;;;;;;;5052127;28;20437;-61
2022/06/29 09:44:26;;;;;;;5.78;2.90;;;;;;;;;;5053020;28;20075;-60
2022/06/29 09:46:55;;;;;;;5.63;2.60;;;;;;;;;;5053645;28;20481;-65
2022/06/29 09:49:25;;;;;;;4.88;2.90;;;;;;;;;;5053458;28;20025;-61
2022/06/29 09:51:54;;;;;;;6.78;2.90;;;;;;;;;;5053326;28;20029;-64
2022/06/29 09:54:21;;;;;;;3.78;2.40;;;;;;;;;;5053402;28;20032;-62
2022/06/29 09:56:48;;;;;;;4.40;2.60;;;;;;;;;;5052975;28;20078;-62
2022/06/29 09:59:20;;;;;;;6.85;3.15;;;;;;;;;;5052355;28;20029;-63
2022/06/29 10:04:32;;;;;;;4.50;3.15;;;;;;;;;;5051606;28;20769;-63
2022/06/29 10:06:59;;;;;;;6.47;3.08;;;;;;;;;;5052676;28;20384;-62
2022/06/29 10:09:25;;;;;;;5.45;2.60;;;;;;;;;;5053248;28;20036;-61
2022/06/29 10:14:41;;;;;;;6.30;2.35;;;;;;;;;;5053430;28;20412;-61
2022/06/29 10:17:23;;;;;;;4.60;2.60;;;;;;;;;;5053049;28;20029;-70
2022/06/29 10:19:57;;;;;;;4.38;2.20;;;;;;;;;;5052759;28;20464;-65
2022/06/29 10:22:23;;;;;;;13.20;3.00;;;;;;;;;;5053138;28;20043;-67
2022/06/29 10:25:03;;;;;;;4.85;2.40;;;;;;;;;;5057318;28;20511;-68
2022/06/29 10:27:29;;;;;;;12.25;3.08;;;;;;;;;;5062275;28;20391;-62
2022/06/29 10:30:14;;;;;;;8.40;3.10;;;;;;;;;;5061189;28;20021;-62
2022/06/29 10:32:40;;;;;;;7.25;2.83;;;;;;;;;;5062238;28;20031;-60
2022/06/29 10:35:06;;;;;;;6.75;2.47;;;;;;;;;;5060666;28;20521;-62
2022/06/29 10:37:33;;;;;;;7.00;2.33;;;;;;;;;;5060709;28;20024;-69
2022/06/29 10:40:04;;;;;;;5.65;2.42;;;;;;;;;;5061673;28;20028;-65
2022/06/29 10:45:24;;;;;;;7.90;2.90;;;;;;;;;;5061799;28;20224;-67
2022/06/29 10:47:53;;;;;;;7.93;2.17;;;;;;;;;;5055171;28;20292;-60
2022/06/29 10:50:21;;;;;;;4.53;2.28;;;;;;;;;;5050819;28;20025;-63
2022/06/29 10:52:47;;;;;;;7.78;2.20;;;;;;;;;;5052402;28;20028;-61
2022/06/29 10:55:14;;;;;;;6.20;2.22;;;;;;;;;;5052298;28;20485;-60
2022/06/29 10:57:44;;;;;;;8.40;2.40;;;;;;;;;;5052074;28;20083;-64
2022/06/29 11:00:16;;;;;;;4.68;1.80;;;;;;;;;;5055864;28;20553;-61
2022/06/29 11:02:43;;;;;;;4.80;2.22;;;;;;;;;;5058271;28;20436;-66
2022/06/29 11:05:09;;;;;;;4.93;1.90;;;;;;;;;;5052169;28;20104;-61
2022/06/29 11:12:01;;;;;;;4.25;1.90;;;;;;;;;;5052592;28;20044;-66
2022/06/29 11:13:28;;;;;;;4.18;2.65;;;;;;;;;;5052152;28;20118;-62
2022/06/29 11:15:55;;;;;;;5.22;2.10;;;;;;;;;;5052364;28;20029;-63
2022/06/29 11:18:23;;;;;;;5.55;2.40;;;;;;;;;;5051870;28;20052;-61
2022/06/29 11:20:50;;;;;;;12.75;2.80;;;;;;;;;;5051631;28;20043;-64
2022/06/29 11:23:18;;;;;;;5.35;2.28;;;;;;;;;;5063421;28;20043;-63
2022/06/29 11:25:49;;;;;;;5.80;2.05;;;;;;;;;;5071520;28;20032;-62
2022/06/29 11:28:18;;;;;;;4.45;1.92;;;;;;;;;;5071590;28;20109;-66
2022/06/29 11:31:03;;;;;;;6.95;2.50;;;;;;;;;;5071775;28;20370;-61
2022/06/29 11:33:30;;;;;;;4.68;2.20;;;;;;;;;;5071770;28;20119;-68
2022/06/29 11:35:57;;;;;;;4.45;2.15;;;;;;;;;;5071653;28;20055;-65
2022/06/29 11:38:29;;;;;;;6.85;2.53;;;;;;;;;;5071696;28;20543;-67
2022/06/29 11:40:56;;;;;;;4.88;2.08;;;;;;;;;;5070698;28;20039;-68
2022/06/29 11:43:22;;;;;;;3.88;2.00;;;;;;;;;;5071493;28;20024;-67
2022/06/29 11:45:58;;;;;;;4.13;2.38;;;;;;;;;;5071064;28;20420;-68
2022/06/29 11:48:26;;;;;;;6.03;2.20;;;;;;;;;;5071377;28;20490;-61
2022/06/29 11:50:56;;;;;;;7.55;2.58;;;;;;;;;;5071252;28;20021;-62
2022/06/29 11:53:40;;;;;;;10.32;2.30;;;;;;;;;;5071285;28;20048;-62
2022/06/29 11:56:10;;;;;;;7.43;2.30;;;;;;;;;;5071486;28;20029;-62
2022/06/29 11:58:37;;;;;;;4.53;2.30;;;;;;;;;;5071383;28;20026;-67
2022/06/29 12:01:07;;;;;;;5.38;2.40;;;;;;;;;;5070911;28;20484;-63
2022/06/29 12:03:33;;;;;;;12.13;2.50;;;;;;;;;;5057285;28;20033;-62
2022/06/29 12:05:59;;;;;;;5.72;2.63;;;;;;;;;;5051298;28;20062;-67
2022/06/29 12:08:30;;;;;;;6.00;2.55;;;;;;;;;;5051254;28;20021;-71
2022/06/29 12:10:57;;;;;;;6.97;2.53;;;;;;;;;;5052634;28;20147;-62
2022/06/29 12:13:23;;;;;;;6.18;2.40;;;;;;;;;;5055362;28;20534;-62
2022/06/29 12:15:49;;;;;;;4.57;2.80;;;;;;;;;;5051412;28;20104;-62
2022/06/29 12:18:16;;;;;;;4.53;2.30;;;;;;;;;;5051269;28;20025;-61
2022/06/29 12:20:43;;;;;;;11.13;3.75;;;;;;;;;;5059440;28;20472;-60
2022/06/29 12:23:09;;;;;;;14.70;3.22;;;;;;;;;;5060999;28;20025;-74
2022/06/29 12:25:35;;;;;;;13.63;3.92;;;;;;;;;;5056271;28;20129;-61
2022/06/29 12:28:02;;;;;;;12.98;3.38;;;;;;;;;;5058256;28;20059;-60
2022/06/29 12:30:28;;;;;;;12.73;3.22;;;;;;;;;;5053672;28;20107;-59
2022/06/29 12:32:54;;;;;;;8.68;2.65;;;;;;;;;;5066381;28;20024;-72
2022/06/29 12:35:20;;;;;;;4.60;2.88;;;;;;;;;;5068284;28;20082;-61
2022/06/29 12:37:46;;;;;;;11.02;3.45;;;;;;;;;;5050887;28;20025;-62
2022/06/29 12:40:13;;;;;;;8.25;3.05;;;;;;;;;;5058179;28;20380;-60
2022/06/29 12:42:39;;;;;;;6.38;2.60;;;;;;;;;;5070602;28;20369;-63
2022/06/29 12:45:05;;;;;;;10.25;2.50;;;;;;;;;;5070576;28;20472;-61
2022/06/29 12:47:32;;;;;;;6.72;3.08;;;;;;;;;;5070829;28;20021;-60
2022/06/29 12:49:58;;;;;;;8.13;2.97;;;;;;;;;;5060069;28;20106;-67
2022/06/29 12:52:24;;;;;;;8.13;2.78;;;;;;;;;;5056102;28;20025;-60
2022/06/29 12:54:50;;;;;;;9.82;3.03;;;;;;;;;;5051949;28;20115;-59
2022/06/29 12:57:16;;;;;;;8.88;3.08;;;;;;;;;;5062276;28;20021;-59
2022/06/29 12:59:43;;;;;;;7.32;2.50;;;;;;;;;;5070667;28;20495;-60
2022/06/29 13:02:09;;;;;;;9.65;2.80;;;;;;;;;;5070818;28;20033;-60
2022/06/29 13:04:36;;;;;;;7.50;3.08;;;;;;;;;;5070779;28;20028;-77
2022/06/29 13:07:02;;;;;;;8.45;2.95;;;;;;;;;;5070593;28;20443;-69
2022/06/29 13:09:28;;;;;;;7.22;2.97;;;;;;;;;;5070783;28;20107;-60
2022/06/29 13:11:54;;;;;;;10.55;2.90;;;;;;;;;;5070801;28;20056;-68
2022/06/29 13:14:20;;;;;;;5.95;2.55;;;;;;;;;;5071039;28;20087;-67
2022/06/29 13:16:48;;;;;;;6.47;3.00;;;;;;;;;;5058171;28;20044;-62
2022/06/29 13:19:15;;;;;;;7.25;3.13;;;;;;;;;;5063872;28;20123;-61
2022/06/29 13:21:41;;;;;;;6.45;2.78;;;;;;;;;;5055798;28;20059;-63
2022/06/29 13:24:07;;;;;;;8.68;3.10;;;;;;;;;;5055860;28;20017;-59
2022/06/29 13:26:34;;;;;;;5.13;2.80;;;;;;;;;;5073820;28;20039;-60
2022/06/29 13:29:00;;;;;;;7.78;3.00;;;;;;;;;;5073449;28;20052;-62
2022/06/29 13:31:27;;;;;;;9.40;2.80;;;;;;;;;;5074184;28;20036;-64
2022/06/29 13:33:53;;;;;;;7.13;2.70;;;;;;;;;;5065986;28;20036;-60
2022/06/29 13:36:19;;;;;;;6.22;3.13;;;;;;;;;;5058818;28;20037;-60
2022/06/29 13:38:45;;;;;;;13.18;3.10;;;;;;;;;;5053779;28;20025;-61
2022/06/29 13:41:11;;;;;;;12.27;3.75;;;;;;;;;;5054008;28;20079;-61
2022/06/29 13:43:37;;;;;;;10.75;3.20;;;;;;;;;;5053761;28;20021;-59
2022/06/29 13:46:03;;;;;;;7.60;3.00;;;;;;;;;;5053838;28;20029;-71
2022/06/29 13:48:29;;;;;;;9.35;3.08;;;;;;;;;;5053673;28;20422;-66
2022/06/29 13:50:56;;;;;;;6.43;2.95;;;;;;;;;;5053707;28;20029;-62
2022/06/29 13:53:22;;;;;;;12.30;3.33;;;;;;;;;;5053752;28;20032;-70
2022/06/29 13:55:48;;;;;;;4.93;2.20;;;;;;;;;;5053875;28;20064;-69
2022/06/29 13:58:14;;;;;;;7.90;2.70;;;;;;;;;;5053266;28;20037;-60
2022/06/29 14:00:40;;;;;;;15.68;3.15;;;;;;;;;;5053835;28;20040;-66
2022/06/29 14:03:06;;;;;;;10.00;2.70;;;;;;;;;;5053639;28;20472;-59
2022/06/29 14:05:32;;;;;;;9.38;2.40;;;;;;;;;;5055899;28;20041;-60
2022/06/29 14:07:58;;;;;;;6.28;2.50;;;;;;;;;;5053521;28;20508;-60
2022/06/29 14:10:24;;;;;;;8.13;2.70;;;;;;;;;;5053583;28;20094;-63
2022/06/29 14:12:50;;;;;;;6.78;2.67;;;;;;;;;;5053728;28;20044;-69
2022/06/29 14:15:16;;;;;;;9.60;2.53;;;;;;;;;;5053262;28;20029;-71
2022/06/29 14:17:42;;;;;;;11.65;2.85;;;;;;;;;;5053475;28;20112;-60
2022/06/29 14:20:09;;;;;;;6.07;2.75;;;;;;;;;;5052969;28;20110;-63
2022/06/29 14:22:35;;;;;;;7.93;2.97;;;;;;;;;;5053178;28;20039;-66
2022/06/29 14:25:01;;;;;;;6.35;2.47;;;;;;;;;;5052820;28;20107;-61
2022/06/29 14:27:27;;;;;;;7.28;2.50;;;;;;;;;;5052586;28;20128;-61
2022/06/29 14:29:54;;;;;;;7.47;2.42;;;;;;;;;;5052874;28;20025;-60
2022/06/29 14:32:20;;;;;;;7.32;2.30;;;;;;;;;;5053188;28;20108;-61
2022/06/29 14:34:46;;;;;;;8.85;2.60;;;;;;;;;;5053006;28;20079;-61
2022/06/29 14:37:12;;;;;;;5.68;2.50;;;;;;;;;;5052903;28;20021;-62
2022/06/29 14:39:38;;;;;;;8.25;3.10;;;;;;;;;;5052510;28;20377;-61
2022/06/29 14:42:06;;;;;;;5.18;2.40;;;;;;;;;;5053188;28;20027;-62
2022/06/29 14:44:33;;;;;;;7.40;2.35;;;;;;;;;;5052673;28;20384;-62
2022/06/29 14:46:59;;;;;;;7.13;2.53;;;;;;;;;;5052330;28;20439;-63
2022/06/29 14:49:25;;;;;;;6.20;2.58;;;;;;;;;;5052485;28;20472;-62
2022/06/29 14:51:51;;;;;;;8.93;2.72;;;;;;;;;;5052625;28;20043;-62
2022/06/29 14:54:17;;;;;;;7.20;2.53;;;;;;;;;;5052761;28;20099;-60
2022/06/29 14:56:43;;;;;;;6.30;2.38;;;;;;;;;;5052609;28;20112;-61
2022/06/29 14:59:09;;;;;;;3.78;2.35;;;;;;;;;;5052359;28;20029;-62
2022/06/29 15:01:35;;;;;;;5.95;2.40;;;;;;;;;;5052254;28;20032;-62
2022/06/29 15:04:01;;;;;;;6.60;2.10;;;;;;;;;;5052465;28;20026;-61
2022/06/29 15:06:28;;;;;;;3.92;2.10;;;;;;;;;;5052052;28;20033;-62
2022/06/29 15:08:54;;;;;;;9.70;1.95;;;;;;;;;;5051689;28;20108;-63
2022/06/29 15:11:20;;;;;;;4.55;2.00;;;;;;;;;;5052001;28;20412;-61
2022/06/29 15:13:46;;;;;;;4.88;1.90;;;;;;;;;;5052208;28;20086;-61
2022/06/29 15:16:12;;;;;;;3.97;2.13;;;;;;;;;;5051968;28;20017;-61
2022/06/29 15:18:40;;;;;;;6.50;1.90;;;;;;;;;;5051916;28;20033;-61
2022/06/29 15:21:06;;;;;;;5.15;1.85;;;;;;;;;;5052155;28;20021;-60
2022/06/29 15:23:32;;;;;;;3.30;1.80;;;;;;;;;;5051062;28;20071;-61
2022/06/29 15:25:58;;;;;;;5.38;2.13;;;;;;;;;;5051323;28;20063;-64
2022/06/29 15:28:24;;;;;;;4.00;1.95;;;;;;;;;;5051163;28;20496;-60
2022/06/29 15:30:50;;;;;;;3.05;2.15;;;;;;;;;;5051503;28;20029;-62
2022/06/29 15:38:45;;;;;;;5.88;1.80;;;;;;;;;;5051754;28;20082;-61
2022/06/29 15:38:46;;;;;;;3.03;2.05;;;;;;;;;;5051696;28;20438;-62
2022/06/29 15:41:13;;;;;;;4.13;1.95;;;;;;;;;;5051608;28;20055;-72
2022/06/29 15:43:39;;;;;;;5.93;2.30;;;;;;;;;;5051316;28;20472;-65
2022/06/29 15:46:05;;;;;;;3.13;2.13;;;;;;;;;;5051347;28;20037;-72
2022/06/29 15:48:31;;;;;;;5.07;1.90;;;;;;;;;;5051349;28;20447;-61
2022/06/29 15:50:57;;;;;;;5.20;1.70;;;;;;;;;;5051529;28;20484;-61
2022/06/29 15:56:09;;;;;;;4.93;2.10;;;;;;;;;;5009524;28;20150;-66
2022/06/29 15:58:36;;;;;;;4.72;2.10;;;;;;;;;;5009197;28;20076;-60
2022/06/29 16:01:02;;;;;;;4.72;1.80;;;;;;;;;;5009399;28;20070;-64
2022/06/29 16:03:28;;;;;;;5.60;2.20;;;;;;;;;;5008942;28;20026;-62
2022/06/29 16:05:54;;;;;;;2.65;1.90;;;;;;;;;;5009202;28;20038;-60
2022/06/29 16:08:20;;;;;;;5.65;2.20;;;;;;;;;;5009427;28;20166;-61
2022/06/29 16:10:46;;;;;;;4.28;2.20;;;;;;;;;;5009229;28;20061;-61
2022/06/29 16:13:12;;;;;;;5.85;2.20;;;;;;;;;;5008943;28;20088;-67
2022/06/29 16:15:38;;;;;;;4.90;2.13;;;;;;;;;;5009119;28;20038;-64
2022/06/29 16:18:04;;;;;;;4.45;2.10;;;;;;;;;;5009165;28;20041;-61
2022/06/29 16:20:30;;;;;;;3.70;2.40;;;;;;;;;;5008680;28;20526;-62
2022/06/29 16:22:56;;;;;;;3.70;2.78;;;;;;;;;;5009237;28;20049;-60
2022/06/29 16:25:22;;;;;;;4.30;2.55;;;;;;;;;;5008994;28;20038;-69
2022/06/29 16:27:48;;;;;;;3.30;2.42;;;;;;;;;;5008144;28;20046;-61
2022/06/29 16:30:15;;;;;;;6.35;2.55;;;;;;;;;;5008528;28;20545;-67
2022/06/29 16:32:41;;;;;;;5.20;2.40;;;;;;;;;;5019944;28;20090;-61
2022/06/29 16:35:07;;;;;;;5.57;2.42;;;;;;;;;;5050729;28;20025;-61
2022/06/29 16:37:33;;;;;;;6.65;2.47;;;;;;;;;;5050612;28;20028;-68
2022/06/29 16:39:59;;;;;;;4.80;2.80;;;;;;;;;;5050571;28;20455;-61
2022/06/29 16:42:25;;;;;;;5.55;2.40;;;;;;;;;;5050720;28;20376;-64
2022/06/29 16:44:51;;;;;;;5.18;3.00;;;;;;;;;;5050671;28;20029;-61
2022/06/29 16:47:17;;;;;;;5.38;2.40;;;;;;;;;;5051546;28;20128;-61
2022/06/29 16:49:43;;;;;;;6.38;2.63;;;;;;;;;;5054512;28;20025;-61
2022/06/29 16:52:09;;;;;;;4.35;2.20;;;;;;;;;;5054994;28;20040;-69
2022/06/29 16:54:35;;;;;;;3.38;2.60;;;;;;;;;;5054492;28;20048;-61
2022/06/29 16:57:02;;;;;;;5.75;2.45;;;;;;;;;;5054536;28;20024;-61
2022/06/29 16:59:28;;;;;;;4.38;2.45;;;;;;;;;;5054515;28;20033;-61
2022/06/29 17:01:54;;;;;;;5.72;2.50;;;;;;;;;;5054616;28;20064;-62
2022/06/29 17:04:20;;;;;;;6.45;2.83;;;;;;;;;;5054534;28;20079;-62
2022/06/29 17:06:46;;;;;;;4.63;2.72;;;;;;;;;;5054473;28;20033;-62
2022/06/29 17:09:12;;;;;;;3.30;2.58;;;;;;;;;;5054472;28;20464;-60
2022/06/29 17:11:38;;;;;;;3.95;2.72;;;;;;;;;;5054566;28;20105;-60
2022/06/29 17:14:04;;;;;;;4.03;2.85;;;;;;;;;;5054281;28;20021;-60
2022/06/29 17:16:30;;;;;;;4.57;2.45;;;;;;;;;;5054041;28;20024;-65
2022/06/29 17:18:57;;;;;;;3.22;2.58;;;;;;;;;;5054354;28;20105;-60
2022/06/29 17:21:23;;;;;;;3.97;2.55;;;;;;;;;;5054220;28;20021;-66
2022/06/29 17:23:49;;;;;;;4.43;3.03;;;;;;;;;;5054197;28;20023;-66
2022/06/29 17:26:15;;;;;;;8.52;2.55;;;;;;;;;;5054072;28;20472;-61
2022/06/29 17:28:41;;;;;;;5.03;2.63;;;;;;;;;;5053505;28;20510;-61
2022/06/29 17:31:09;;;;;;;7.35;2.90;;;;;;;;;;5054407;28;20025;-62
2022/06/29 17:33:36;;;;;;;5.53;2.85;;;;;;;;;;5054116;28;20399;-61
2022/06/29 17:36:02;;;;;;;4.93;2.90;;;;;;;;;;5053319;28;20027;-60
2022/06/29 17:38:28;;;;;;;4.80;2.55;;;;;;;;;;5053402;28;20388;-65
2022/06/29 17:40:54;;;;;;;5.63;2.83;;;;;;;;;;5053748;28;20029;-60
2022/06/29 17:43:20;;;;;;;6.15;2.90;;;;;;;;;;5053828;28;20439;-62
2022/06/29 17:45:46;;;;;;;5.65;3.05;;;;;;;;;;5053757;28;20508;-63
2022/06/29 17:48:12;;;;;;;8.80;2.78;;;;;;;;;;5053803;28;20033;-72
2022/06/29 17:50:38;;;;;;;3.72;3.03;;;;;;;;;;5053327;28;20549;-60
2022/06/29 17:53:05;;;;;;;7.82;2.55;;;;;;;;;;5053298;28;20079;-60
2022/06/29 17:55:31;;;;;;;8.32;2.60;;;;;;;;;;5053743;28;20060;-64
2022/06/29 17:57:57;;;;;;;7.10;2.83;;;;;;;;;;5052891;28;20021;-66
2022/06/29 18:00:23;;;;;;;6.70;2.95;;;;;;;;;;5053371;28;20040;-60
2022/06/29 18:02:49;;;;;;;7.38;2.80;;;;;;;;;;5053296;28;20108;-66
2022/06/29 18:05:15;;;;;;;4.10;2.50;;;;;;;;;;5053364;28;20033;-60
2022/06/29 18:07:42;;;;;;;4.53;2.63;;;;;;;;;;5052772;28;20051;-61
2022/06/29 18:10:08;;;;;;;5.15;2.47;;;;;;;;;;5053463;28;20487;-66
2022/06/29 18:12:34;;;;;;;6.05;2.55;;;;;;;;;;5053439;28;20067;-63
2022/06/29 18:15:00;;;;;;;5.82;2.70;;;;;;;;;;5052984;28;20040;-60
2022/06/29 18:17:26;;;;;;;6.40;2.40;;;;;;;;;;5052479;28;20021;-61
2022/06/29 18:19:52;;;;;;;7.03;2.58;;;;;;;;;;5052440;28;20036;-61
2022/06/29 18:22:18;;;;;;;6.03;2.40;;;;;;;;;;5052957;28;20021;-61
2022/06/29 18:24:44;;;;;;;6.70;2.40;;;;;;;;;;5051909;28;20064;-66
2022/06/29 18:27:10;;;;;;;4.35;2.60;;;;;;;;;;5051280;28;20045;-60
2022/06/29 18:29:37;;;;;;;7.15;2.50;;;;;;;;;;5052457;28;20037;-64
2022/06/29 18:32:03;;;;;;;4.95;2.85;;;;;;;;;;5051859;28;20020;-64
2022/06/29 18:34:29;;;;;;;6.47;2.80;;;;;;;;;;5051569;28;20112;-60